createdAt,value
2023-04-12T00:04:24.940Z,9.11
2023-04-12T00:09:31.085Z,9.16
2023-04-12T00:14:36.515Z,9.06
2023-04-12T00:19:45.195Z,8.86
2023-04-12T00:24:50.701Z,8.88
2023-04-12T00:29:56.586Z,8.82
2023-04-12T00:35:02.124Z,8.74
2023-04-12T00:40:10.189Z,8.60
2023-04-12T00:45:16.452Z,8.62
2023-04-12T00:50:23.505Z,8.60
2023-04-12T00:55:29.043Z,8.62
2023-04-12T01:00:35.775Z,8.62
2023-04-12T01:05:44.315Z,8.61
2023-04-12T01:10:59.109Z,8.50
2023-04-12T01:16:17.322Z,8.48
2023-04-12T01:21:43.774Z,8.40
2023-04-12T01:26:53.237Z,8.43
2023-04-12T01:32:04.951Z,8.39
2023-04-12T01:37:11.531Z,8.44
2023-04-12T01:42:21.886Z,8.45
2023-04-12T01:47:28.129Z,8.53
2023-04-12T01:52:36.729Z,8.60
2023-04-12T01:57:45.048Z,8.53
2023-04-12T02:02:51.464Z,8.44
2023-04-12T02:07:58.308Z,8.48
2023-04-12T02:13:04.597Z,8.47
2023-04-12T02:18:10.085Z,8.49
2023-04-12T02:23:16.373Z,8.28
2023-04-12T02:28:23.344Z,8.20
2023-04-12T02:33:29.744Z,8.31
2023-04-12T02:38:36.576Z,8.33
2023-04-12T02:43:43.272Z,8.39
2023-04-12T02:48:49.588Z,8.33
2023-04-12T02:53:56.318Z,8.18
2023-04-12T02:59:03.635Z,8.03
2023-04-12T03:04:17.146Z,7.87
2023-04-12T03:09:25.183Z,7.77
2023-04-12T03:14:32.329Z,7.80
2023-04-12T03:19:38.493Z,7.81
2023-04-12T03:24:46.164Z,7.76
2023-04-12T03:29:53.261Z,7.71
2023-04-12T03:35:00.934Z,7.43
2023-04-12T03:40:08.172Z,7.27
2023-04-12T03:45:14.064Z,7.36
2023-04-12T03:50:22.291Z,7.16
2023-04-12T03:55:29.480Z,7.11
2023-04-12T04:00:36.025Z,6.98
2023-04-12T04:05:46.299Z,6.87
2023-04-12T04:10:52.984Z,6.76
2023-04-12T04:16:10.023Z,6.74
2023-04-12T04:21:17.106Z,6.64
2023-04-12T04:26:24.534Z,6.66
2023-04-12T04:31:37.700Z,6.55
2023-04-12T04:36:45.071Z,6.50
2023-04-12T04:41:53.837Z,6.57
2023-04-12T04:47:10.100Z,6.64
2023-04-12T04:52:18.110Z,6.61
2023-04-12T04:57:26.831Z,6.79
2023-04-12T05:02:37.069Z,6.88
2023-04-12T05:07:44.605Z,6.75
2023-04-12T05:12:50.235Z,6.66
2023-04-12T05:17:57.966Z,6.78
2023-04-12T05:23:03.646Z,6.98
2023-04-12T05:28:11.075Z,7.21
2023-04-12T05:33:16.869Z,7.39
2023-04-12T05:38:24.191Z,7.64
2023-04-12T05:43:31.526Z,7.88
2023-04-12T05:48:37.197Z,8.05
2023-04-12T05:53:42.794Z,8.25
2023-04-12T05:58:49.500Z,8.44
2023-04-12T06:03:55.810Z,8.57
2023-04-12T06:09:02.697Z,8.63
2023-04-12T06:14:11.205Z,8.77
2023-04-12T06:19:16.089Z,8.98
2023-04-12T06:24:21.628Z,9.10
2023-04-12T06:29:27.224Z,9.40
2023-04-12T06:34:34.521Z,9.54
2023-04-12T06:39:42.891Z,9.80
2023-04-12T06:44:48.340Z,10.10
2023-04-12T06:49:56.303Z,10.27
2023-04-12T06:55:01.959Z,10.39
2023-04-12T07:00:08.985Z,10.46
2023-04-12T07:05:15.940Z,10.51
2023-04-12T07:10:21.358Z,10.39
2023-04-12T07:15:26.954Z,10.44
2023-04-12T07:20:32.472Z,10.83
2023-04-12T07:25:40.766Z,11.03
2023-04-12T07:30:46.433Z,10.75
2023-04-12T07:35:51.909Z,11.11
2023-04-12T07:40:57.829Z,10.88
2023-04-12T07:46:08.244Z,10.81
2023-04-12T07:51:14.283Z,11.30
2023-04-12T07:56:19.782Z,11.55
2023-04-12T08:01:25.224Z,11.84
2023-04-12T08:06:33.025Z,11.88
2023-04-12T08:11:38.765Z,11.83
2023-04-12T08:16:44.268Z,11.44
2023-04-12T08:21:49.832Z,11.57
2023-04-12T08:26:56.260Z,12.00
2023-04-12T08:32:05.321Z,12.11
2023-04-12T08:37:10.809Z,11.94
2023-04-12T08:42:17.621Z,12.20
2023-04-12T08:47:24.407Z,11.81
2023-04-12T08:52:30.526Z,11.85
2023-04-12T08:57:41.488Z,11.96
2023-04-12T09:02:49.156Z,12.22
2023-04-12T09:07:54.905Z,12.22
2023-04-12T09:13:01.444Z,12.20
2023-04-12T09:18:16.620Z,12.06
2023-04-12T09:23:24.996Z,12.30
2023-04-12T09:28:31.561Z,12.59
2023-04-12T09:33:39.550Z,12.41
2023-04-12T09:38:48.089Z,12.53
2023-04-12T09:43:53.615Z,12.82
2023-04-12T09:49:00.347Z,12.90
2023-04-12T09:54:09.174Z,12.52
2023-04-12T09:59:16.716Z,13.15
2023-04-12T10:04:22.919Z,12.80
2023-04-12T10:09:28.960Z,12.66
2023-04-12T10:14:34.616Z,12.58
2023-04-12T10:19:42.038Z,13.02
2023-04-12T10:24:47.717Z,13.32
2023-04-12T10:29:53.485Z,13.41
2023-04-12T10:35:00.962Z,13.43
2023-04-12T10:40:07.634Z,13.47
2023-04-12T10:45:35.490Z,13.68
2023-04-12T10:50:41.236Z,13.83
2023-04-12T10:55:47.391Z,14.00
2023-04-12T11:01:04.697Z,13.90
2023-04-12T11:06:24.074Z,14.11
2023-04-12T11:11:40.029Z,14.59
2023-04-12T11:17:09.591Z,14.59
2023-04-12T11:22:17.076Z,14.75
2023-04-12T11:27:23.733Z,14.61
2023-04-12T11:32:31.579Z,14.79
2023-04-12T11:37:37.304Z,14.95
2023-04-12T11:42:43.339Z,15.02
2023-04-12T11:47:48.932Z,14.93
2023-04-12T11:52:54.946Z,15.03
2023-04-12T11:58:01.612Z,15.22
2023-04-12T12:03:08.685Z,15.40
2023-04-12T12:08:15.147Z,15.71
2023-04-12T12:13:20.840Z,15.63
2023-04-12T12:18:29.486Z,15.84
2023-04-12T12:23:35.770Z,15.73
2023-04-12T12:28:41.721Z,16.13
2023-04-12T12:33:47.637Z,16.11
2023-04-12T12:38:55.073Z,16.30
2023-04-12T12:44:01.812Z,16.41
2023-04-12T12:49:07.351Z,16.41
2023-04-12T12:54:12.852Z,16.23
2023-04-12T12:59:18.301Z,16.47
2023-04-12T13:04:23.990Z,16.58
2023-04-12T13:09:29.664Z,16.68
2023-04-12T13:14:35.791Z,16.63
2023-04-12T13:19:41.290Z,17.14
2023-04-12T13:24:47.028Z,17.08
2023-04-12T13:29:52.611Z,17.12
2023-04-12T13:34:58.062Z,17.83
2023-04-12T13:40:04.815Z,17.60
2023-04-12T13:45:11.526Z,17.52
2023-04-12T13:50:17.012Z,17.62
2023-04-12T13:55:22.740Z,17.74
2023-04-12T14:00:28.326Z,17.62
2023-04-12T14:05:33.758Z,17.37
2023-04-12T14:10:39.200Z,17.39
2023-04-12T14:15:44.708Z,17.63
2023-04-12T14:20:52.754Z,17.49
2023-04-12T14:25:58.262Z,17.60
2023-04-12T14:31:06.169Z,17.61
2023-04-12T14:36:11.300Z,17.43
2023-04-12T14:41:17.319Z,17.30
2023-04-12T14:46:23.858Z,17.30
2023-04-12T14:51:30.395Z,17.37
2023-04-12T14:56:43.860Z,17.18
2023-04-12T15:01:44.266Z,17.32
2023-04-12T15:06:49.830Z,17.38
2023-04-12T15:11:57.057Z,17.46
2023-04-12T15:17:02.730Z,17.18
2023-04-12T15:22:08.224Z,17.07
2023-04-12T15:27:13.945Z,16.93
2023-04-12T15:32:19.533Z,16.65
2023-04-12T15:37:25.805Z,16.40
2023-04-12T15:42:31.332Z,16.20
2023-04-12T15:47:37.537Z,16.11
2023-04-12T15:52:44.355Z,15.99
2023-04-12T15:57:50.024Z,15.88
2023-04-12T16:02:57.963Z,15.75
2023-04-12T16:08:04.234Z,15.66
2023-04-12T16:13:11.260Z,15.40
2023-04-12T16:18:18.129Z,15.27
2023-04-12T16:23:23.788Z,15.23
2023-04-12T16:28:29.758Z,15.14
2023-04-12T16:33:35.259Z,15.12
2023-04-12T16:38:41.272Z,14.92
2023-04-12T16:43:47.038Z,14.96
2023-04-12T16:48:52.479Z,14.85
2023-04-12T16:53:59.402Z,14.69
2023-04-12T16:59:05.213Z,14.70
2023-04-12T17:04:11.966Z,14.62
2023-04-12T17:09:17.981Z,14.48
2023-04-12T17:14:23.508Z,14.37
2023-04-12T17:19:28.954Z,14.26
2023-04-12T17:24:34.469Z,14.17
2023-04-12T17:29:41.463Z,14.16
2023-04-12T17:34:47.110Z,14.14
2023-04-12T17:39:53.595Z,14.13
2023-04-12T17:44:59.173Z,14.07
2023-04-12T17:50:05.412Z,14.04
2023-04-12T17:55:12.954Z,13.91
2023-04-12T18:00:19.417Z,13.89
2023-04-12T18:05:24.271Z,13.82
2023-04-12T18:10:30.418Z,13.75
2023-04-12T18:15:36.431Z,13.73
2023-04-12T18:20:42.260Z,13.74
2023-04-12T18:25:47.971Z,13.66
2023-04-12T18:30:55.497Z,13.67
2023-04-12T18:36:00.673Z,13.59
2023-04-12T18:41:06.316Z,13.50
2023-04-12T18:46:18.940Z,13.44
2023-04-12T18:51:24.831Z,13.30
2023-04-12T18:56:30.629Z,13.27
2023-04-12T19:01:37.051Z,13.26
2023-04-12T19:06:44.331Z,13.17
2023-04-12T19:11:49.932Z,13.22
2023-04-12T19:16:55.375Z,13.11
2023-04-12T19:22:00.992Z,13.07
2023-04-12T19:27:06.715Z,13.07
2023-04-12T19:32:12.678Z,13.01
2023-04-12T19:37:18.640Z,12.91
2023-04-12T19:42:24.093Z,12.91
2023-04-12T19:47:29.647Z,12.78
2023-04-12T19:52:35.430Z,12.74
2023-04-12T19:57:41.764Z,12.75
2023-04-12T20:02:49.269Z,12.70
2023-04-12T20:07:56.292Z,12.69
2023-04-12T20:13:02.007Z,12.73
2023-04-12T20:18:08.736Z,12.66
2023-04-12T20:23:14.955Z,12.64
2023-04-12T20:28:21.366Z,12.58
2023-04-12T20:33:27.524Z,12.57
2023-04-12T20:38:33.310Z,12.53
2023-04-12T20:43:46.657Z,12.44
2023-04-12T20:48:55.180Z,12.44
2023-04-12T20:54:02.580Z,12.45
2023-04-12T20:59:08.105Z,12.44
2023-04-12T21:04:16.010Z,12.45
2023-04-12T21:09:23.530Z,12.42
2023-04-12T21:14:29.607Z,12.42
2023-04-12T21:19:39.907Z,12.44
2023-04-12T21:24:45.498Z,12.46
2023-04-12T21:29:51.028Z,12.38
2023-04-12T21:34:58.150Z,12.38
2023-04-12T21:40:12.277Z,12.39
2023-04-12T21:45:17.991Z,12.28
2023-04-12T21:50:23.563Z,12.29
2023-04-12T21:55:29.177Z,12.19
2023-04-12T22:00:35.121Z,12.22
2023-04-12T22:05:40.611Z,12.14
2023-04-12T22:10:47.728Z,12.09
2023-04-12T22:15:53.315Z,12.11
2023-04-12T22:20:59.644Z,12.08
2023-04-12T22:26:07.118Z,12.05
2023-04-12T22:31:18.970Z,11.96
2023-04-12T22:36:29.778Z,11.98
2023-04-12T22:41:38.012Z,11.96
2023-04-12T22:46:45.313Z,11.90
2023-04-12T22:51:51.182Z,11.96
2023-04-12T22:56:56.634Z,12.00
2023-04-12T23:02:02.708Z,12.02
2023-04-12T23:07:08.510Z,11.98
2023-04-12T23:12:14.525Z,12.01
2023-04-12T23:17:19.962Z,12.05
2023-04-12T23:22:52.537Z,12.06
2023-04-12T23:27:43.788Z,12.07
2023-04-12T23:32:49.375Z,12.17
2023-04-12T23:37:56.175Z,12.21
2023-04-12T23:43:02.519Z,12.19
2023-04-12T23:48:08.107Z,12.18
2023-04-12T23:53:14.277Z,12.16
2023-04-12T23:58:20.817Z,12.24
